createdAt,value
2018-12-05T00:15:32.208Z,8.00
2018-12-05T00:17:59.737Z,8.00
2018-12-05T00:20:27.226Z,8.00
2018-12-05T00:22:54.729Z,8.00
2018-12-05T00:25:22.193Z,8.00
2018-12-05T00:45:10.445Z,8.00
2018-12-05T01:04:58.233Z,8.00
2018-12-05T01:24:47.173Z,7.90
2018-12-05T01:27:14.981Z,7.90
2018-12-05T01:29:42.448Z,7.80
2018-12-05T01:32:10.238Z,7.80
2018-12-05T01:34:37.715Z,7.80
2018-12-05T01:37:05.247Z,7.70
2018-12-05T01:39:32.763Z,7.70
2018-12-05T01:42:00.368Z,7.70
2018-12-05T01:44:27.825Z,7.70
2018-12-05T01:46:55.313Z,7.60
2018-12-05T01:49:22.778Z,7.60
2018-12-05T02:09:11.486Z,7.80
2018-12-05T02:11:38.947Z,7.70
2018-12-05T02:14:06.483Z,7.70
2018-12-05T02:16:34.485Z,7.70
2018-12-05T02:19:01.949Z,7.60
2018-12-05T02:21:29.426Z,7.60
2018-12-05T02:41:18.344Z,7.40
2018-12-05T02:43:45.811Z,7.30
2018-12-05T02:46:13.283Z,7.30
2018-12-05T02:48:40.918Z,7.30
2018-12-05T02:51:08.382Z,7.20
2018-12-05T02:53:35.850Z,7.20
2018-12-05T02:56:03.338Z,7.20
2018-12-05T02:58:30.804Z,7.30
2018-12-05T03:00:58.271Z,7.30
2018-12-05T03:20:47.881Z,7.50
2018-12-05T03:23:15.337Z,7.50
2018-12-05T03:43:03.795Z,7.50
2018-12-05T04:02:51.839Z,7.50
2018-12-05T04:05:21.218Z,7.60
2018-12-05T04:07:48.687Z,7.60
2018-12-05T04:10:16.154Z,7.50
2018-12-05T04:12:43.775Z,7.50
2018-12-05T04:15:11.338Z,7.60
2018-12-05T04:34:59.839Z,7.30
2018-12-05T04:37:27.306Z,7.40
2018-12-05T04:39:54.766Z,7.30
2018-12-05T04:42:22.275Z,7.30
2018-12-05T04:44:49.754Z,7.40
2018-12-05T04:47:17.237Z,7.30
2018-12-05T04:49:44.811Z,7.30
2018-12-05T04:52:12.280Z,7.30
2018-12-05T04:54:39.742Z,7.20
2018-12-05T04:57:07.250Z,7.20
2018-12-05T04:59:34.711Z,7.20
2018-12-05T05:02:02.461Z,7.20
2018-12-05T05:04:30.306Z,7.30
2018-12-05T05:06:57.775Z,7.30
2018-12-05T05:09:25.238Z,7.30
2018-12-05T05:11:52.734Z,7.40
2018-12-05T05:14:20.203Z,7.40
2018-12-05T05:16:47.666Z,7.50
2018-12-05T05:19:15.489Z,7.40
2018-12-05T05:21:42.951Z,7.40
2018-12-05T05:41:31.444Z,7.60
2018-12-05T05:43:58.906Z,7.60
2018-12-05T05:46:26.368Z,7.50
2018-12-05T05:48:54.333Z,7.50
2018-12-05T05:51:22.138Z,7.50
2018-12-05T05:53:49.614Z,7.50
2018-12-05T05:56:17.325Z,7.50
2018-12-05T05:58:44.922Z,7.40
2018-12-05T06:18:34.119Z,7.50
2018-12-05T06:21:01.580Z,7.50
2018-12-05T06:23:29.034Z,7.50
2018-12-05T06:25:56.807Z,7.50
2018-12-05T06:28:24.350Z,7.50
2018-12-05T06:30:51.810Z,7.50
2018-12-05T06:33:19.603Z,7.60
2018-12-05T06:53:08.062Z,7.60
2018-12-05T06:55:39.135Z,7.60
2018-12-05T06:58:05.107Z,7.70
2018-12-05T07:00:32.572Z,7.70
2018-12-05T07:03:00.068Z,7.70
2018-12-05T07:05:27.531Z,7.70
2018-12-05T07:07:54.995Z,7.70
2018-12-05T07:10:22.795Z,7.70
2018-12-05T07:12:50.259Z,7.70
2018-12-05T07:15:17.791Z,7.70
2018-12-05T07:17:45.294Z,7.70
2018-12-05T07:20:12.754Z,7.60
2018-12-05T07:22:40.218Z,7.60
2018-12-05T07:25:07.874Z,7.60
2018-12-05T07:27:35.339Z,7.60
2018-12-05T07:30:02.968Z,7.60
2018-12-05T07:32:31.187Z,7.50
2018-12-05T07:52:19.587Z,7.60
2018-12-05T07:54:47.346Z,7.60
2018-12-05T07:57:14.805Z,7.60
2018-12-05T07:59:42.267Z,7.70
2018-12-05T08:02:10.117Z,7.70
2018-12-05T08:04:37.609Z,7.70
2018-12-05T08:07:05.073Z,7.70
2018-12-05T08:09:32.731Z,7.70
2018-12-05T08:29:21.314Z,7.60
2018-12-05T08:31:49.098Z,7.60
2018-12-05T08:34:16.559Z,7.60
2018-12-05T08:36:44.019Z,7.70
2018-12-05T08:39:11.518Z,7.70
2018-12-05T08:41:38.983Z,7.70
2018-12-05T08:44:06.450Z,7.70
2018-12-05T08:46:33.922Z,7.70
2018-12-05T08:49:01.387Z,7.70
2018-12-05T08:51:28.854Z,7.70
2018-12-05T08:53:56.459Z,7.70
2018-12-05T08:56:23.924Z,7.80
2018-12-05T08:58:51.387Z,7.70
2018-12-05T09:01:18.878Z,7.80
2018-12-05T09:03:46.334Z,7.90
2018-12-05T09:06:13.807Z,7.90
2018-12-05T09:08:41.302Z,8.00
2018-12-05T09:11:08.779Z,8.00
2018-12-05T09:13:36.237Z,8.00
2018-12-05T09:16:03.777Z,8.00
2018-12-05T09:18:31.239Z,8.10
2018-12-05T09:20:58.693Z,8.10
2018-12-05T09:23:26.186Z,8.10
2018-12-05T09:25:53.651Z,8.10
2018-12-05T09:45:42.570Z,8.60
2018-12-05T09:48:10.029Z,8.60
2018-12-05T09:50:37.498Z,8.50
2018-12-05T09:53:04.982Z,8.60
2018-12-05T09:55:32.448Z,8.60
2018-12-05T09:57:59.931Z,8.60
2018-12-05T10:00:27.448Z,8.60
2018-12-05T10:02:54.907Z,8.60
2018-12-05T10:05:22.366Z,8.60
2018-12-05T10:07:49.861Z,8.60
2018-12-05T10:10:17.322Z,8.60
2018-12-05T10:12:44.784Z,8.60
2018-12-05T10:15:12.631Z,8.60
2018-12-05T10:17:40.094Z,8.60
2018-12-05T10:20:07.632Z,8.70
2018-12-05T10:22:35.150Z,8.70
2018-12-05T10:25:02.618Z,8.70
2018-12-05T10:27:30.082Z,8.70
2018-12-05T10:29:57.594Z,8.70
2018-12-05T10:32:25.063Z,8.70
2018-12-05T10:34:52.532Z,8.70
2018-12-05T10:37:20.023Z,8.70
2018-12-05T10:39:47.495Z,8.80
2018-12-05T10:42:14.954Z,8.70
2018-12-05T10:44:42.466Z,8.70
2018-12-05T10:47:09.922Z,8.60
2018-12-05T10:49:37.391Z,8.60
2018-12-05T10:52:05.370Z,8.50
2018-12-05T10:54:32.907Z,8.60
2018-12-05T10:57:00.366Z,8.60
2018-12-05T10:59:28.373Z,8.60
2018-12-05T11:02:01.508Z,8.60
2018-12-05T11:07:35.251Z,8.70
2018-12-05T11:10:08.879Z,8.80
2018-12-05T11:12:41.259Z,8.80
2018-12-05T11:15:14.855Z,8.90
2018-12-05T11:17:44.287Z,8.80
2018-12-05T11:20:17.962Z,8.80
2018-12-05T11:22:51.003Z,8.90
2018-12-05T11:25:18.853Z,8.90
2018-12-05T11:27:46.314Z,8.90
2018-12-05T11:30:13.775Z,9.00
2018-12-05T11:32:41.276Z,9.00
2018-12-05T11:35:08.812Z,9.00
2018-12-05T11:37:36.270Z,9.00
2018-12-05T11:40:04.412Z,9.00
2018-12-05T11:42:31.878Z,9.00
2018-12-05T11:44:59.346Z,9.10
2018-12-05T11:47:26.865Z,9.00
2018-12-05T11:49:54.318Z,9.00
2018-12-05T11:52:21.786Z,9.00
2018-12-05T12:12:12.306Z,8.80
2018-12-05T12:14:39.775Z,8.80
2018-12-05T12:17:07.329Z,8.80
2018-12-05T12:19:34.851Z,8.80
2018-12-05T12:22:02.311Z,8.80
2018-12-05T12:24:34.819Z,8.70
2018-12-05T12:26:59.596Z,8.70
2018-12-05T12:29:27.054Z,8.70
2018-12-05T12:31:54.520Z,8.70
2018-12-05T12:51:44.248Z,8.60
2018-12-05T12:54:11.719Z,8.60
2018-12-05T12:56:39.182Z,8.70
2018-12-05T12:59:07.127Z,8.70
2018-12-05T13:01:34.606Z,8.80
2018-12-05T13:04:02.066Z,8.80
2018-12-05T13:06:29.574Z,8.80
2018-12-05T13:08:57.048Z,8.80
2018-12-05T13:11:24.503Z,8.80
2018-12-05T13:13:52.115Z,8.80
2018-12-05T13:16:19.611Z,8.80
2018-12-05T13:18:47.087Z,8.70
2018-12-05T13:21:14.919Z,8.70
2018-12-05T13:23:42.382Z,8.70
2018-12-05T13:26:09.853Z,8.70
2018-12-05T13:28:37.365Z,8.70
2018-12-05T13:48:25.586Z,8.90
2018-12-05T13:50:53.160Z,9.00
2018-12-05T14:10:41.545Z,8.70
2018-12-05T14:13:09.319Z,8.80
2018-12-05T14:15:36.777Z,8.80
2018-12-05T14:18:04.399Z,8.80
2018-12-05T14:20:31.898Z,8.90
2018-12-05T14:22:59.430Z,8.90
2018-12-05T14:25:26.895Z,8.90
2018-12-05T14:27:54.527Z,9.00
2018-12-05T14:30:22.058Z,9.00
2018-12-05T14:32:49.518Z,8.90
2018-12-05T14:35:17.021Z,8.90
2018-12-05T14:37:44.473Z,8.90
2018-12-05T14:40:11.934Z,8.80
2018-12-05T14:42:39.523Z,8.80
2018-12-05T14:45:07.123Z,8.70
2018-12-05T14:47:34.582Z,8.70
2018-12-05T14:50:02.136Z,8.70
2018-12-05T14:52:29.603Z,8.70
2018-12-05T14:54:57.062Z,8.80
2018-12-05T14:57:24.561Z,8.70
2018-12-05T14:59:52.027Z,8.80
2018-12-05T15:02:19.511Z,8.80
2018-12-05T15:04:46.994Z,8.80
2018-12-05T15:07:14.466Z,8.80
2018-12-05T15:09:42.103Z,8.80
2018-12-05T15:12:09.706Z,8.80
2018-12-05T15:14:37.162Z,8.80
2018-12-05T15:17:04.692Z,8.80
2018-12-05T15:19:32.326Z,8.80
2018-12-05T15:21:59.791Z,8.80
2018-12-05T15:24:27.257Z,8.70
2018-12-05T15:44:16.265Z,8.70
2018-12-05T16:04:05.514Z,8.60
2018-12-05T16:06:33.026Z,8.50
2018-12-05T16:09:00.496Z,8.50
2018-12-05T16:11:27.954Z,8.50
2018-12-05T16:13:55.523Z,8.50
2018-12-05T16:33:44.206Z,8.60
2018-12-05T16:36:11.706Z,8.60
2018-12-05T16:56:00.600Z,8.50
2018-12-05T16:58:28.566Z,8.50
2018-12-05T17:00:56.021Z,8.50
2018-12-05T17:03:23.487Z,8.50
2018-12-05T17:05:51.602Z,8.40
2018-12-05T17:08:19.077Z,8.40
2018-12-05T17:10:46.538Z,8.40
2018-12-05T17:13:14.361Z,8.50
2018-12-05T17:15:41.823Z,8.40
2018-12-05T17:18:09.278Z,8.40
2018-12-05T17:20:36.956Z,8.40
2018-12-05T17:23:04.482Z,8.30
2018-12-05T17:25:31.946Z,8.30
2018-12-05T17:27:59.747Z,8.30
2018-12-05T17:30:27.210Z,8.30
2018-12-05T17:32:54.670Z,8.30
2018-12-05T17:35:22.150Z,8.30
2018-12-05T17:37:49.615Z,8.30
2018-12-05T17:40:17.154Z,8.30
2018-12-05T17:42:44.943Z,8.30
2018-12-05T17:45:12.402Z,8.30
2018-12-05T18:05:01.100Z,8.20
2018-12-05T18:07:28.613Z,8.20
2018-12-05T18:27:17.450Z,8.20
2018-12-05T18:29:44.918Z,8.10
2018-12-05T18:32:12.383Z,8.20
2018-12-05T18:34:40.116Z,8.10
2018-12-05T18:37:07.577Z,8.20
2018-12-05T18:39:35.047Z,8.10
2018-12-05T18:59:23.581Z,8.20
2018-12-05T19:01:51.072Z,8.20
2018-12-05T19:04:18.538Z,8.20
2018-12-05T19:06:46.036Z,8.20
2018-12-05T19:09:13.578Z,8.20
2018-12-05T19:11:41.044Z,8.30
2018-12-05T19:14:14.197Z,8.30
2018-12-05T19:16:41.653Z,8.30
2018-12-05T19:19:09.122Z,8.30
2018-12-05T19:21:36.772Z,8.30
2018-12-05T19:24:04.234Z,8.40
2018-12-05T19:43:53.154Z,8.40
2018-12-05T19:46:20.684Z,8.40
2018-12-05T19:48:48.144Z,8.40
2018-12-05T19:51:15.646Z,8.40
2018-12-05T19:53:43.115Z,8.40
2018-12-05T19:56:10.582Z,8.40
2018-12-05T20:15:58.682Z,8.40
2018-12-05T20:18:26.142Z,8.40
2018-12-05T20:38:14.810Z,8.30
2018-12-05T20:58:04.103Z,8.40
2018-12-05T21:00:31.610Z,8.40
2018-12-05T21:20:20.447Z,8.40
2018-12-05T21:40:09.610Z,8.40
2018-12-05T21:42:37.065Z,8.40
2018-12-05T21:45:04.765Z,8.40
2018-12-05T22:04:54.348Z,8.50
2018-12-05T22:24:43.128Z,8.50
2018-12-05T22:44:32.377Z,8.40
2018-12-05T22:46:59.838Z,8.40
2018-12-05T23:06:48.245Z,8.30
2018-12-05T23:26:37.202Z,8.30
2018-12-05T23:29:04.683Z,8.30
2018-12-05T23:31:32.664Z,8.40
2018-12-05T23:51:21.837Z,8.30
2018-12-05T23:53:49.438Z,8.30
